Hovedside
METAR-TAF:

METAR-TAF

Lufthavner :

Kristiansand lufthavn. Kjevik

Kristiansand, Norge

breddegrad: 58-12N, lengdegrad: 008-05E, høyde over havet: 1 m

Gjeldene værobservasjon

Denne rapporten ble laget for 26 minutter siden, klokken 01:20 UTC
Vind 6 kt fra Øst-nordøst, skiftende mellom Nordøst og Sørøst
Temperatur 1°C
Luftfuktighet 100%
Trykk 998 hPa
Sikt: 5000 m
lett regn

METAR: ENCN 290120Z AUTO 06006KT 050V140 5000 -RA FEW001/// BKN007/// OVC023/// 01/01 Q0998 REDZ

Tid: 02:46 (01:46 UTC)

Varsel

Denne rapporten ble laget for 5 timer og 5 minutter siden, klokken 20:41 UTC
Varsel gyldig fra 28. klokken 20 UTC til 28. klokken 22 UTC
Vind 8 kt fra Sørvest
Sikt 10 km eller mer
Brutte skyer i en høyde av 1200 ft
Blir
fra 28. klokken 20 UTC til 28. klokken 22 UTC
Spredte skyer i en høyde av 1200 ft
Brutte skyer i en høyde av 3000 ft

TAF: ENCN 282041Z 2820/2822 22008KT 9999 BKN012 BECMG 2820/2822 SCT012 BKN030

Værobservasjoner og værvarsel for over 4000 flyplasser (METAR- og TAF-rapporter).

Tilgjengelige stasjoner er representert av de røde og gule prikkene på kartet.

Hold musepekeren over prikken for å se navnet på stasjonen.

Klikk så for å se værobservasjoner og -varsler.

For å forandre kartet kan du klikke på den grønne knappen med svart kryss for å zoome inn, på den grønne knappen med strek for å zoome ut, eller på de grønne pilene for å se tilstøtende kart.


METAR-TAF: